createdAt,value
2023-03-29T00:02:30.216Z,1.70
2023-03-29T00:05:02.101Z,1.68
2023-03-29T00:07:30.045Z,1.67
2023-03-29T00:09:58.955Z,1.70
2023-03-29T00:12:27.031Z,1.69
2023-03-29T00:14:55.360Z,1.73
2023-03-29T00:17:23.119Z,1.72
2023-03-29T00:19:50.963Z,1.74
2023-03-29T00:22:18.602Z,1.73
2023-03-29T00:24:47.754Z,1.75
2023-03-29T00:27:17.404Z,1.75
2023-03-29T00:29:45.395Z,1.76
2023-03-29T00:32:13.151Z,1.79
2023-03-29T00:34:42.644Z,1.80
2023-03-29T00:37:10.658Z,1.80
2023-03-29T00:39:41.999Z,1.80
2023-03-29T00:42:12.824Z,1.79
2023-03-29T00:45:01.004Z,1.80
2023-03-29T00:47:32.201Z,1.80
2023-03-29T00:50:03.752Z,1.80
2023-03-29T00:52:33.112Z,1.80
2023-03-29T00:55:05.237Z,1.81
2023-03-29T00:57:35.045Z,1.79
2023-03-29T01:00:10.002Z,1.80
2023-03-29T01:02:40.760Z,1.78
2023-03-29T01:05:11.361Z,1.76
2023-03-29T01:07:48.190Z,1.76
2023-03-29T01:10:21.461Z,1.76
2023-03-29T01:12:53.563Z,1.75
2023-03-29T01:15:26.560Z,1.74
2023-03-29T01:17:58.006Z,1.75
2023-03-29T01:20:42.288Z,1.75
2023-03-29T01:23:28.356Z,1.73
2023-03-29T01:26:01.994Z,1.72
2023-03-29T01:28:37.069Z,1.71
2023-03-29T01:31:09.489Z,1.71
2023-03-29T01:33:41.564Z,1.70
2023-03-29T01:36:16.480Z,1.68
2023-03-29T01:38:50.058Z,1.67
2023-03-29T01:41:17.819Z,1.68
2023-03-29T01:43:52.395Z,1.67
2023-03-29T01:46:27.757Z,1.67
2023-03-29T01:49:01.596Z,1.67
2023-03-29T01:51:36.367Z,1.64
2023-03-29T01:54:08.582Z,1.63
2023-03-29T01:56:41.134Z,1.61
2023-03-29T01:59:13.825Z,1.60
2023-03-29T02:01:49.326Z,1.58
2023-03-29T02:04:22.011Z,1.55
2023-03-29T02:06:54.191Z,1.52
2023-03-29T02:09:22.239Z,1.50
2023-03-29T02:11:52.428Z,1.48
2023-03-29T02:14:21.446Z,1.45
2023-03-29T02:16:49.963Z,1.44
2023-03-29T02:19:19.161Z,1.43
2023-03-29T02:22:01.521Z,1.40
2023-03-29T02:24:32.291Z,1.38
2023-03-29T02:27:01.233Z,1.35
2023-03-29T02:29:30.605Z,1.33
2023-03-29T02:32:05.057Z,1.30
2023-03-29T02:34:37.602Z,1.30
2023-03-29T02:37:10.316Z,1.28
2023-03-29T02:39:41.110Z,1.27
2023-03-29T02:42:10.469Z,1.26
2023-03-29T02:44:42.581Z,1.24
2023-03-29T02:47:16.612Z,1.23
2023-03-29T02:49:44.568Z,1.21
2023-03-29T02:52:17.384Z,1.21
2023-03-29T02:54:48.498Z,1.20
2023-03-29T02:57:16.266Z,1.17
2023-03-29T02:59:45.309Z,1.16
2023-03-29T03:02:13.606Z,1.16
2023-03-29T03:04:41.446Z,1.15
2023-03-29T03:07:09.383Z,1.14
2023-03-29T03:09:37.348Z,1.12
2023-03-29T03:12:05.235Z,1.11
2023-03-29T03:14:33.235Z,1.08
2023-03-29T03:17:04.713Z,1.08
2023-03-29T03:19:33.818Z,1.05
2023-03-29T03:22:01.591Z,1.07
2023-03-29T03:24:29.335Z,1.06
2023-03-29T03:26:58.232Z,1.05
2023-03-29T03:29:26.087Z,1.03
2023-03-29T03:32:27.135Z,1.00
2023-03-29T03:35:29.969Z,0.97
2023-03-29T03:37:57.926Z,0.95
2023-03-29T03:40:27.870Z,0.93
2023-03-29T03:42:56.085Z,0.91
2023-03-29T03:45:24.754Z,0.89
2023-03-29T03:47:54.062Z,0.85
2023-03-29T03:50:35.178Z,0.82
2023-03-29T03:53:03.391Z,0.80
2023-03-29T03:55:50.110Z,0.78
2023-03-29T03:58:23.393Z,0.76
2023-03-29T04:00:52.024Z,0.74
2023-03-29T04:03:37.638Z,0.73
2023-03-29T04:06:06.469Z,0.70
2023-03-29T04:08:54.047Z,0.68
2023-03-29T04:11:34.966Z,0.67
2023-03-29T04:14:02.733Z,0.67
2023-03-29T04:16:42.385Z,0.64
2023-03-29T04:19:43.480Z,0.64
2023-03-29T04:22:11.141Z,0.64
2023-03-29T04:24:38.998Z,0.64
2023-03-29T04:27:25.121Z,0.64
2023-03-29T04:29:52.936Z,0.63
2023-03-29T04:32:28.820Z,0.63
2023-03-29T04:36:54.701Z,0.63
2023-03-29T04:39:33.925Z,0.64
2023-03-29T04:42:05.155Z,0.65
2023-03-29T04:44:34.953Z,0.65
2023-03-29T04:47:05.767Z,0.67
2023-03-29T04:49:39.152Z,0.68
2023-03-29T04:52:14.696Z,0.73
2023-03-29T04:54:43.714Z,0.80
2023-03-29T04:57:20.346Z,0.84
2023-03-29T05:00:13.704Z,0.86
2023-03-29T05:02:58.800Z,0.89
2023-03-29T05:05:29.198Z,0.90
2023-03-29T05:07:59.753Z,0.91
2023-03-29T05:10:35.115Z,0.93
2023-03-29T05:13:04.044Z,0.97
2023-03-29T05:15:32.719Z,1.00
2023-03-29T05:18:00.847Z,1.03
2023-03-29T05:20:31.571Z,1.06
2023-03-29T05:23:01.803Z,1.06
2023-03-29T05:25:50.080Z,1.07
2023-03-29T05:28:18.441Z,1.11
2023-03-29T05:30:46.525Z,1.12
2023-03-29T05:33:21.250Z,1.15
2023-03-29T05:35:49.033Z,1.20
2023-03-29T05:38:18.058Z,1.27
2023-03-29T05:40:45.781Z,1.32
2023-03-29T05:43:36.296Z,1.37
2023-03-29T05:46:05.881Z,1.43
2023-03-29T05:48:33.575Z,1.48
2023-03-29T05:51:01.528Z,1.55
2023-03-29T05:53:30.647Z,1.64
2023-03-29T05:55:58.711Z,1.71
2023-03-29T05:58:28.985Z,1.80
2023-03-29T06:01:00.547Z,1.86
2023-03-29T06:03:54.308Z,1.93
2023-03-29T06:06:25.440Z,1.99
2023-03-29T06:08:54.922Z,2.03
2023-03-29T06:11:32.867Z,2.09
2023-03-29T06:14:24.879Z,2.16
2023-03-29T06:17:02.688Z,2.23
2023-03-29T06:19:31.951Z,2.31
2023-03-29T06:21:59.732Z,2.39
2023-03-29T06:24:30.962Z,2.46
2023-03-29T06:27:07.362Z,2.57
2023-03-29T06:29:35.122Z,2.66
2023-03-29T06:32:03.332Z,2.74
2023-03-29T06:34:48.848Z,2.84
2023-03-29T06:37:40.577Z,2.94
2023-03-29T06:40:25.989Z,3.02
2023-03-29T06:42:57.857Z,3.09
2023-03-29T06:45:44.668Z,3.18
2023-03-29T06:48:21.370Z,3.25
2023-03-29T06:50:49.319Z,3.32
2023-03-29T06:53:18.091Z,3.39
2023-03-29T06:55:55.779Z,3.45
2023-03-29T06:58:44.953Z,3.51
2023-03-29T07:01:47.900Z,3.56
2023-03-29T07:04:23.508Z,3.58
2023-03-29T07:07:43.857Z,3.59
2023-03-29T07:10:26.254Z,3.61
2023-03-29T07:13:15.561Z,3.62
2023-03-29T07:15:45.027Z,3.63
2023-03-29T07:18:31.587Z,3.66
2023-03-29T07:20:59.398Z,3.68
2023-03-29T07:23:27.100Z,3.71
2023-03-29T07:25:54.732Z,3.74
2023-03-29T07:28:24.357Z,3.78
2023-03-29T07:30:54.990Z,3.80
2023-03-29T07:33:23.473Z,3.84
2023-03-29T07:35:57.512Z,3.90
2023-03-29T07:38:26.140Z,3.95
2023-03-29T07:41:00.476Z,4.01
2023-03-29T07:43:51.897Z,4.07
2023-03-29T07:46:24.950Z,4.14
2023-03-29T07:48:52.754Z,4.21
2023-03-29T07:51:20.912Z,4.28
2023-03-29T07:53:52.437Z,4.36
2023-03-29T07:56:38.722Z,4.44
2023-03-29T07:59:43.010Z,4.53
2023-03-29T08:02:16.304Z,4.61
2023-03-29T08:04:50.245Z,4.67
2023-03-29T08:07:24.465Z,4.76
2023-03-29T08:10:16.395Z,4.81
2023-03-29T08:13:19.554Z,4.93
2023-03-29T08:16:06.814Z,5.01
2023-03-29T08:18:39.440Z,5.09
2023-03-29T08:21:08.282Z,5.19
2023-03-29T08:23:37.101Z,5.27
2023-03-29T08:26:15.950Z,5.36
2023-03-29T08:28:44.122Z,5.44
2023-03-29T08:31:13.769Z,5.50
2023-03-29T08:33:44.474Z,5.57
2023-03-29T08:36:30.752Z,5.66
2023-03-29T08:39:03.412Z,5.75
2023-03-29T08:41:45.701Z,5.86
2023-03-29T08:44:23.373Z,5.94
2023-03-29T08:47:09.648Z,6.03
2023-03-29T08:49:45.405Z,6.08
2023-03-29T08:52:22.061Z,6.15
2023-03-29T08:54:54.048Z,6.19
2023-03-29T08:58:00.974Z,6.25
2023-03-29T09:00:38.131Z,6.32
2023-03-29T09:03:12.643Z,6.40
2023-03-29T09:05:47.451Z,6.45
2023-03-29T09:08:23.537Z,6.52
2023-03-29T09:11:12.566Z,6.60
2023-03-29T09:13:51.449Z,6.66
2023-03-29T09:16:30.138Z,6.70
2023-03-29T09:19:11.427Z,6.78
2023-03-29T09:21:46.629Z,6.87
2023-03-29T09:24:29.860Z,6.93
2023-03-29T09:27:15.340Z,6.99
2023-03-29T09:29:56.656Z,7.04
2023-03-29T09:32:44.059Z,7.13
2023-03-29T09:35:19.177Z,7.23
2023-03-29T09:37:49.879Z,7.30
2023-03-29T09:40:20.131Z,7.34
2023-03-29T09:43:07.910Z,7.39
2023-03-29T09:45:39.284Z,7.41
2023-03-29T09:48:12.531Z,7.46
2023-03-29T09:50:46.489Z,7.53
2023-03-29T09:53:15.261Z,7.59
2023-03-29T09:55:52.025Z,7.69
2023-03-29T09:58:32.804Z,7.81
2023-03-29T10:01:03.106Z,7.91
2023-03-29T10:03:34.883Z,8.04
2023-03-29T10:06:14.847Z,8.18
2023-03-29T10:08:52.697Z,8.31
2023-03-29T10:11:24.198Z,8.37
2023-03-29T10:13:57.200Z,8.49
2023-03-29T10:16:29.434Z,8.60
2023-03-29T10:18:57.453Z,8.74
2023-03-29T10:21:30.282Z,8.86
2023-03-29T10:23:59.595Z,8.99
2023-03-29T10:26:32.840Z,9.08
2023-03-29T10:29:01.898Z,9.16
2023-03-29T10:31:33.140Z,9.31
2023-03-29T10:34:04.950Z,9.45
2023-03-29T10:36:34.310Z,9.59
2023-03-29T10:39:06.254Z,9.70
2023-03-29T10:41:36.727Z,9.77
2023-03-29T10:44:05.015Z,9.86
2023-03-29T10:46:36.244Z,9.88
2023-03-29T10:49:10.321Z,9.85
2023-03-29T10:51:45.729Z,9.83
2023-03-29T10:54:15.805Z,9.90
2023-03-29T10:56:47.980Z,9.95
2023-03-29T10:59:27.346Z,10.01
2023-03-29T11:02:17.688Z,10.11
2023-03-29T11:04:48.624Z,10.25
2023-03-29T11:07:27.228Z,10.38
2023-03-29T11:10:07.911Z,10.50
2023-03-29T11:12:43.579Z,10.61
2023-03-29T11:15:34.255Z,10.69
2023-03-29T11:18:25.148Z,10.79
2023-03-29T11:20:59.114Z,10.97
2023-03-29T11:23:42.120Z,11.18
2023-03-29T11:26:16.644Z,11.30
2023-03-29T11:28:53.014Z,11.44
2023-03-29T11:31:33.031Z,11.65
2023-03-29T11:34:15.470Z,11.63
2023-03-29T11:36:52.744Z,11.67
2023-03-29T11:39:31.432Z,11.77
2023-03-29T11:42:05.343Z,11.94
2023-03-29T11:44:34.362Z,12.07
2023-03-29T11:47:07.315Z,12.22
2023-03-29T11:49:39.483Z,12.28
2023-03-29T11:52:13.896Z,12.27
2023-03-29T11:54:49.409Z,12.20
2023-03-29T11:57:27.296Z,12.24
2023-03-29T12:00:00.048Z,12.28
2023-03-29T12:02:34.598Z,12.35
2023-03-29T12:05:10.870Z,12.44
2023-03-29T12:07:44.786Z,12.51
2023-03-29T12:10:20.784Z,12.53
2023-03-29T12:12:55.945Z,12.67
2023-03-29T12:15:26.297Z,12.73
2023-03-29T12:18:02.324Z,12.80
2023-03-29T12:20:35.095Z,12.78
2023-03-29T12:23:04.384Z,12.76
2023-03-29T12:25:41.901Z,12.70
2023-03-29T12:28:28.444Z,12.61
2023-03-29T12:31:03.777Z,12.54
2023-03-29T12:33:57.941Z,12.46
2023-03-29T12:37:03.480Z,12.42
2023-03-29T12:39:51.583Z,12.32
2023-03-29T12:42:46.183Z,12.30
2023-03-29T12:45:48.321Z,12.30
2023-03-29T12:48:20.257Z,12.29
2023-03-29T12:50:52.392Z,12.27
2023-03-29T12:53:24.216Z,12.32
2023-03-29T12:56:08.533Z,12.42
2023-03-29T12:58:52.590Z,12.40
2023-03-29T13:01:29.509Z,12.35
2023-03-29T13:04:13.712Z,12.32
2023-03-29T13:07:03.951Z,12.36
2023-03-29T13:09:35.617Z,12.37
2023-03-29T13:12:20.888Z,12.49
2023-03-29T13:14:54.472Z,12.56
2023-03-29T13:17:27.893Z,12.60
2023-03-29T13:20:12.416Z,12.72
2023-03-29T13:22:50.616Z,12.85
2023-03-29T13:25:41.277Z,13.00
2023-03-29T13:28:16.680Z,13.14
2023-03-29T13:30:55.656Z,13.28
2023-03-29T13:33:44.121Z,13.41
2023-03-29T13:36:22.549Z,13.49
2023-03-29T13:38:53.252Z,13.43
2023-03-29T13:41:32.468Z,13.42
2023-03-29T13:44:00.300Z,13.38
2023-03-29T13:46:40.926Z,13.28
2023-03-29T13:49:18.174Z,13.20
2023-03-29T13:52:03.681Z,13.17
2023-03-29T13:54:36.572Z,13.21
2023-03-29T13:57:10.841Z,13.19
2023-03-29T13:59:45.886Z,13.10
2023-03-29T14:02:23.003Z,13.10
2023-03-29T14:04:53.442Z,13.14
2023-03-29T14:07:26.173Z,13.14
2023-03-29T14:09:56.378Z,13.12
2023-03-29T14:12:24.526Z,13.12
2023-03-29T14:14:59.205Z,13.15
2023-03-29T14:17:29.176Z,13.18
2023-03-29T14:19:59.582Z,13.20
2023-03-29T14:22:33.416Z,13.25
2023-03-29T14:25:04.673Z,13.27
2023-03-29T14:27:32.816Z,13.25
2023-03-29T14:30:01.070Z,13.23
2023-03-29T14:32:32.418Z,13.24
2023-03-29T14:35:01.826Z,13.29
2023-03-29T14:37:30.766Z,13.33
2023-03-29T14:39:59.744Z,13.32
2023-03-29T14:42:30.099Z,13.31
2023-03-29T14:45:05.376Z,13.31
2023-03-29T14:47:35.070Z,13.36
2023-03-29T14:50:03.943Z,13.42
2023-03-29T14:52:33.010Z,13.46
2023-03-29T14:55:02.289Z,13.48
2023-03-29T14:57:35.228Z,13.51
2023-03-29T15:00:13.433Z,13.57
2023-03-29T15:02:50.947Z,13.60
2023-03-29T15:05:35.604Z,13.56
2023-03-29T15:08:04.196Z,13.49
2023-03-29T15:10:33.790Z,13.48
2023-03-29T15:13:04.242Z,13.47
2023-03-29T15:15:34.589Z,13.45
2023-03-29T15:18:07.013Z,13.44
2023-03-29T15:20:37.544Z,13.43
2023-03-29T15:23:10.659Z,13.42
2023-03-29T15:25:40.210Z,13.39
2023-03-29T15:28:08.028Z,13.38
2023-03-29T15:30:38.976Z,13.34
2023-03-29T15:33:16.366Z,13.31
2023-03-29T15:35:47.237Z,13.26
2023-03-29T15:38:14.943Z,13.20
2023-03-29T15:40:42.789Z,13.10
2023-03-29T15:43:10.754Z,13.05
2023-03-29T15:45:38.381Z,13.01
2023-03-29T15:48:16.312Z,12.96
2023-03-29T15:50:45.080Z,12.90
2023-03-29T15:53:15.645Z,12.86
2023-03-29T15:55:46.244Z,12.82
2023-03-29T15:58:15.953Z,12.73
2023-03-29T16:00:46.540Z,12.65
2023-03-29T16:03:16.816Z,12.57
2023-03-29T16:05:45.467Z,12.45
2023-03-29T16:08:13.831Z,12.37
2023-03-29T16:10:43.772Z,12.30
2023-03-29T16:13:14.247Z,12.24
2023-03-29T16:15:43.589Z,12.17
2023-03-29T16:18:11.261Z,12.09
2023-03-29T16:20:40.580Z,12.01
2023-03-29T16:23:09.453Z,11.88
2023-03-29T16:25:39.812Z,11.75
2023-03-29T16:28:09.049Z,11.65
2023-03-29T16:30:38.426Z,11.56
2023-03-29T16:33:08.428Z,11.49
2023-03-29T16:35:39.813Z,11.41
2023-03-29T16:38:09.959Z,11.35
2023-03-29T16:40:38.339Z,11.28
2023-03-29T16:43:06.185Z,11.19
2023-03-29T16:45:33.989Z,11.11
2023-03-29T16:48:01.743Z,11.02
2023-03-29T16:50:29.417Z,10.95
2023-03-29T16:52:57.048Z,10.91
2023-03-29T16:55:25.976Z,10.83
2023-03-29T16:57:53.850Z,10.79
2023-03-29T17:00:22.211Z,10.74
2023-03-29T17:02:50.601Z,10.70
2023-03-29T17:05:18.774Z,10.65
2023-03-29T17:07:46.953Z,10.61
2023-03-29T17:10:15.503Z,10.57
2023-03-29T17:12:44.451Z,10.50
2023-03-29T17:15:12.206Z,10.44
2023-03-29T17:17:40.119Z,10.38
2023-03-29T17:20:11.800Z,10.33
2023-03-29T17:22:39.593Z,10.32
2023-03-29T17:25:08.723Z,10.28
2023-03-29T17:27:37.406Z,10.25
2023-03-29T17:30:15.901Z,10.21
2023-03-29T17:32:45.692Z,10.18
2023-03-29T17:35:13.706Z,10.16
2023-03-29T17:37:41.905Z,10.12
2023-03-29T17:40:13.580Z,10.08
2023-03-29T17:42:41.270Z,10.06
2023-03-29T17:45:11.093Z,10.04
2023-03-29T17:47:39.312Z,10.02
2023-03-29T17:50:11.103Z,9.99
2023-03-29T17:52:40.444Z,9.96
2023-03-29T17:55:11.119Z,9.94
2023-03-29T17:57:39.301Z,9.92
2023-03-29T18:00:09.281Z,9.89
2023-03-29T18:02:37.050Z,9.87
2023-03-29T18:05:05.369Z,9.85
2023-03-29T18:07:34.324Z,9.84
2023-03-29T18:10:02.348Z,9.82
2023-03-29T18:12:30.328Z,9.78
2023-03-29T18:14:57.949Z,9.77
2023-03-29T18:17:27.295Z,9.73
2023-03-29T18:19:55.262Z,9.70
2023-03-29T18:22:24.040Z,9.69
2023-03-29T18:24:54.849Z,9.66
2023-03-29T18:27:22.467Z,9.64
2023-03-29T18:29:50.070Z,9.61
2023-03-29T18:32:17.832Z,9.59
2023-03-29T18:34:45.553Z,9.58
2023-03-29T18:37:15.076Z,9.56
2023-03-29T18:39:43.030Z,9.54
2023-03-29T18:42:12.795Z,9.52
2023-03-29T18:44:41.113Z,9.48
2023-03-29T18:47:09.552Z,9.49
2023-03-29T18:49:37.615Z,9.47
2023-03-29T18:52:05.790Z,9.45
2023-03-29T18:54:33.446Z,9.44
2023-03-29T18:57:01.417Z,9.43
2023-03-29T18:59:30.573Z,9.42
2023-03-29T19:01:58.171Z,9.40
2023-03-29T19:04:27.198Z,9.40
2023-03-29T19:06:55.598Z,9.37
2023-03-29T19:09:23.444Z,9.36
2023-03-29T19:11:51.085Z,9.35
2023-03-29T19:14:23.421Z,9.33
2023-03-29T19:16:53.391Z,9.32
2023-03-29T19:19:23.770Z,9.30
2023-03-29T19:21:52.818Z,9.29
2023-03-29T19:24:20.811Z,9.30
2023-03-29T19:26:50.002Z,9.30
2023-03-29T19:29:17.596Z,9.29
2023-03-29T19:31:45.401Z,9.28
2023-03-29T19:34:15.585Z,9.28
2023-03-29T19:36:43.173Z,9.27
2023-03-29T19:39:10.890Z,9.25
2023-03-29T19:41:41.342Z,9.24
2023-03-29T19:44:09.474Z,9.23
2023-03-29T19:46:37.120Z,9.20
2023-03-29T19:49:05.647Z,9.18
2023-03-29T19:51:34.912Z,9.17
2023-03-29T19:54:02.650Z,9.17
2023-03-29T19:56:30.333Z,9.14
2023-03-29T19:58:57.974Z,9.13
2023-03-29T20:01:27.267Z,9.13
2023-03-29T20:03:55.000Z,9.13
2023-03-29T20:06:22.712Z,9.12
2023-03-29T20:08:52.832Z,9.13
2023-03-29T20:11:23.827Z,9.13
2023-03-29T20:13:51.597Z,9.12
2023-03-29T20:16:24.291Z,9.11
2023-03-29T20:18:53.967Z,9.11
2023-03-29T20:21:21.707Z,9.11
2023-03-29T20:23:50.748Z,9.08
2023-03-29T20:26:18.830Z,9.07
2023-03-29T20:28:46.701Z,9.05
2023-03-29T20:31:14.355Z,9.04
2023-03-29T20:33:44.348Z,9.01
2023-03-29T20:36:13.148Z,8.98
2023-03-29T20:38:41.010Z,8.95
2023-03-29T20:41:10.860Z,8.93
2023-03-29T20:43:38.548Z,8.90
2023-03-29T20:46:14.325Z,8.87
2023-03-29T20:48:45.921Z,8.85
2023-03-29T20:51:14.195Z,8.83
2023-03-29T20:53:42.922Z,8.83
2023-03-29T20:56:13.095Z,8.80
2023-03-29T20:58:42.220Z,8.80
2023-03-29T21:01:10.036Z,8.78
2023-03-29T21:03:38.047Z,8.78
2023-03-29T21:06:05.982Z,8.76
2023-03-29T21:08:33.630Z,8.74
2023-03-29T21:11:01.326Z,8.74
2023-03-29T21:13:33.765Z,8.73
2023-03-29T21:16:03.429Z,8.70
2023-03-29T21:18:31.152Z,8.70
2023-03-29T21:20:58.764Z,8.69
2023-03-29T21:23:26.377Z,8.66
2023-03-29T21:25:53.991Z,8.65
2023-03-29T21:28:21.602Z,8.64
2023-03-29T21:30:50.868Z,8.63
2023-03-29T21:33:18.482Z,8.64
2023-03-29T21:35:48.673Z,8.63
2023-03-29T21:38:16.554Z,8.64
2023-03-29T21:40:44.387Z,8.63
2023-03-29T21:43:12.008Z,8.63
2023-03-29T21:45:39.647Z,8.64
2023-03-29T21:48:08.701Z,8.65
2023-03-29T21:50:36.400Z,8.63
2023-03-29T21:53:04.021Z,8.64
2023-03-29T21:55:36.102Z,8.63
2023-03-29T21:58:04.083Z,8.64
2023-03-29T22:00:32.057Z,8.65
2023-03-29T22:02:59.811Z,8.63
2023-03-29T22:05:28.868Z,8.62
2023-03-29T22:07:58.690Z,8.63
2023-03-29T22:10:27.290Z,8.63
2023-03-29T22:12:54.939Z,8.63
2023-03-29T22:15:22.575Z,8.63
2023-03-29T22:17:50.501Z,8.63
2023-03-29T22:20:18.871Z,8.60
2023-03-29T22:22:50.840Z,8.57
2023-03-29T22:25:19.351Z,8.56
2023-03-29T22:27:48.654Z,8.55
2023-03-29T22:30:17.187Z,8.54
2023-03-29T22:32:44.880Z,8.54
2023-03-29T22:35:12.778Z,8.53
2023-03-29T22:37:44.365Z,8.53
2023-03-29T22:40:14.636Z,8.52
2023-03-29T22:42:42.312Z,8.52
2023-03-29T22:45:10.971Z,8.51
2023-03-29T22:47:38.710Z,8.48
2023-03-29T22:50:07.581Z,8.46
2023-03-29T22:52:35.293Z,8.45
2023-03-29T22:55:03.080Z,8.43
2023-03-29T22:57:32.200Z,8.42
2023-03-29T22:59:59.823Z,8.41
2023-03-29T23:02:27.544Z,8.41
2023-03-29T23:04:56.335Z,8.41
2023-03-29T23:07:23.957Z,8.42
2023-03-29T23:09:51.834Z,8.41
2023-03-29T23:12:19.466Z,8.39
2023-03-29T23:14:48.422Z,8.41
2023-03-29T23:17:19.342Z,8.40
2023-03-29T23:19:47.902Z,8.40
2023-03-29T23:22:15.740Z,8.40
2023-03-29T23:24:47.254Z,8.38
2023-03-29T23:27:15.447Z,8.39
2023-03-29T23:29:45.266Z,8.38
2023-03-29T23:32:15.707Z,8.38
2023-03-29T23:34:43.460Z,8.36
2023-03-29T23:37:11.255Z,8.35
2023-03-29T23:39:38.926Z,8.34
2023-03-29T23:42:06.693Z,8.34
2023-03-29T23:44:34.305Z,8.31
2023-03-29T23:47:01.954Z,8.32
2023-03-29T23:49:31.813Z,8.30
2023-03-29T23:52:00.268Z,8.29
2023-03-29T23:54:28.993Z,8.28
2023-03-29T23:56:56.650Z,8.27
2023-03-29T23:59:29.853Z,8.27
